Time;durP1;ratioP1;P1;durP2;ratioP2;P2;SDS_P1;SDS_P2;PMS_P1;PMS_P2;Temp;Humidity;BMP_temperature;BMP_pressure;BME280_temperature;BME280_humidity;BME280_pressure;Samples;Min_cycle;Max_cycle;Signal;HPM_P1;HPM_P2
2022/03/27 00:01:31;;;;;;;20.10;8.87;;;8.30;87.70;;;;;;5051016;28;20609;-72
2022/03/27 00:03:57;;;;;;;17.27;8.90;;;8.20;91.00;;;;;;5066865;28;20545;-73
2022/03/27 00:06:23;;;;;;;20.97;8.77;;;8.10;89.40;;;;;;5070657;28;20306;-73
2022/03/27 00:08:48;;;;;;;16.00;9.07;;;8.10;90.90;;;;;;5070166;28;20856;-73
2022/03/27 00:11:29;;;;;;;20.07;9.43;;;7.90;91.60;;;;;;5057802;28;20268;-72
2022/03/27 00:13:57;;;;;;;26.27;9.00;;;7.70;94.30;;;;;;5051498;28;20303;-72
2022/03/27 00:16:23;;;;;;;16.03;7.93;;;7.70;95.00;;;;;;5070570;28;20866;-73
2022/03/27 00:18:50;;;;;;;20.17;8.50;;;7.60;95.80;;;;;;5055245;28;20432;-73
2022/03/27 00:21:16;;;;;;;19.10;9.30;;;7.70;96.30;;;;;;5075137;28;20442;-72
2022/03/27 00:23:43;;;;;;;15.80;8.00;;;7.60;98.40;;;;;;5068424;28;20542;-73
2022/03/27 00:26:09;;;;;;;17.70;8.13;;;7.70;98.40;;;;;;5062845;28;20430;-72
2022/03/27 00:28:35;;;;;;;23.00;9.67;;;7.60;97.60;;;;;;5049134;28;20849;-73
2022/03/27 00:31:04;;;;;;;18.97;8.33;;;7.50;98.40;;;;;;5082737;28;20474;-74
2022/03/27 00:33:30;;;;;;;20.03;8.67;;;7.50;98.40;;;;;;5061346;28;20177;-73
2022/03/27 00:35:56;;;;;;;19.17;7.57;;;7.50;98.30;;;;;;5083077;28;20466;-73
2022/03/27 00:38:22;;;;;;;18.53;9.27;;;7.70;98.40;;;;;;5072285;28;20416;-73
2022/03/27 00:40:49;;;;;;;21.20;8.27;;;7.40;98.30;;;;;;5050294;28;20891;-73
2022/03/27 00:43:15;;;;;;;23.60;9.20;;;7.40;98.30;;;;;;5063757;28;20549;-73
2022/03/27 00:45:41;;;;;;;19.13;8.33;;;7.40;98.70;;;;;;5069824;28;20441;-73
2022/03/27 00:48:06;;;;;;;22.87;9.30;;;7.30;98.60;;;;;;5059561;28;20189;-73
2022/03/27 00:50:32;;;;;;;17.70;8.40;;;7.30;99.90;;;;;;5074780;28;20302;-73
2022/03/27 00:52:58;;;;;;;17.47;8.23;;;7.30;99.90;;;;;;5066354;28;20183;-73
2022/03/27 00:55:24;;;;;;;17.13;8.37;;;7.20;99.90;;;;;;5069870;28;20180;-74
2022/03/27 00:57:49;;;;;;;19.03;9.30;;;7.20;99.90;;;;;;5067680;28;20500;-73
2022/03/27 01:00:34;;;;;;;12.70;8.40;;;7.20;99.90;;;;;;5070238;28;20272;-74
2022/03/27 01:03:00;;;;;;;17.00;7.47;;;7.10;99.90;;;;;;5044637;28;20184;-73
2022/03/27 01:05:25;;;;;;;19.27;8.47;;;7.10;99.90;;;;;;5063459;28;20414;-73
2022/03/27 01:07:51;;;;;;;17.10;8.80;;;7.10;99.90;;;;;;5050529;28;20186;-73
2022/03/27 01:10:25;;;;;;;20.27;9.37;;;7.50;99.90;;;;;;5069070;28;20223;-73
2022/03/27 01:12:51;;;;;;;19.60;9.20;;;7.20;99.90;;;;;;5064807;28;20188;-73
2022/03/27 01:15:40;;;;;;;18.00;8.90;;;7.10;99.90;;;;;;5049933;28;21089;-72
2022/03/27 01:18:07;;;;;;;24.67;9.40;;;7.10;99.90;;;;;;5073987;28;20435;-73
2022/03/27 01:20:35;;;;;;;17.30;9.33;;;6.90;99.90;;;;;;5068958;28;20460;-73
2022/03/27 01:23:01;;;;;;;12.50;7.90;;;6.90;99.90;;;;;;5055832;28;20921;-72
2022/03/27 01:25:27;;;;;;;22.77;8.73;;;6.80;99.90;;;;;;5054538;28;20468;-73
2022/03/27 01:27:53;;;;;;;16.60;8.20;;;6.70;99.90;;;;;;5048313;28;20426;-73
2022/03/27 01:30:19;;;;;;;17.33;8.97;;;6.70;99.90;;;;;;5051223;28;20419;-73
2022/03/27 01:32:45;;;;;;;15.13;9.30;;;6.60;99.90;;;;;;5064707;28;20188;-72
2022/03/27 01:35:12;;;;;;;19.67;8.90;;;6.70;99.90;;;;;;5067989;28;20411;-72
2022/03/27 01:37:38;;;;;;;16.80;8.07;;;6.90;99.90;;;;;;5069149;28;20184;-73
2022/03/27 01:40:05;;;;;;;18.53;9.23;;;6.70;99.90;;;;;;5067520;28;20431;-73
2022/03/27 01:42:30;;;;;;;22.10;8.97;;;6.80;99.90;;;;;;5065988;28;20195;-73
2022/03/27 01:44:56;;;;;;;15.00;8.93;;;6.80;99.90;;;;;;5066919;28;20427;-72
2022/03/27 01:47:21;;;;;;;21.17;9.43;;;7.10;99.90;;;;;;5061342;28;20566;-72
2022/03/27 01:49:47;;;;;;;12.17;7.53;;;6.70;99.90;;;;;;5067557;28;20277;-73
2022/03/27 01:52:15;;;;;;;19.83;9.00;;;6.70;99.90;;;;;;5066739;28;20276;-73
2022/03/27 01:54:41;;;;;;;18.70;9.07;;;6.60;99.90;;;;;;5068433;28;20214;-72
2022/03/27 01:57:06;;;;;;;20.10;8.90;;;6.50;99.90;;;;;;5065773;28;20552;-73
2022/03/27 01:59:33;;;;;;;18.00;9.43;;;6.50;99.90;;;;;;5048954;28;20193;-73
2022/03/27 02:01:59;;;;;;;21.30;9.13;;;6.40;99.90;;;;;;5060220;28;20173;-73
2022/03/27 02:04:25;;;;;;;15.63;9.17;;;6.30;99.90;;;;;;5069052;28;20862;-73
2022/03/27 02:06:50;;;;;;;16.27;9.17;;;6.30;99.90;;;;;;5067268;28;20554;-73
2022/03/27 02:09:16;;;;;;;17.90;9.73;;;6.30;99.90;;;;;;5068765;28;20212;-72
2022/03/27 02:11:42;;;;;;;20.47;8.80;;;6.30;99.90;;;;;;5062508;28;20685;-72
2022/03/27 02:14:09;;;;;;;17.03;9.17;;;6.30;99.90;;;;;;5063289;28;20169;-73
2022/03/27 02:16:36;;;;;;;26.77;9.10;;;6.30;99.90;;;;;;5049076;28;20455;-75
2022/03/27 02:19:01;;;;;;;18.33;8.60;;;6.30;99.90;;;;;;5077690;28;20889;-73
2022/03/27 02:21:27;;;;;;;15.57;8.90;;;6.40;99.90;;;;;;5068228;28;20450;-73
2022/03/27 02:23:53;;;;;;;17.17;9.00;;;6.40;99.90;;;;;;5062965;28;20264;-73
2022/03/27 02:26:18;;;;;;;20.90;8.20;;;6.30;99.90;;;;;;5065944;28;20180;-73
2022/03/27 02:28:44;;;;;;;23.80;8.47;;;6.30;99.90;;;;;;5067028;28;20245;-74
2022/03/27 02:31:10;;;;;;;16.17;9.67;;;6.20;99.90;;;;;;5050583;28;20602;-74
2022/03/27 02:33:36;;;;;;;21.00;9.43;;;6.20;99.90;;;;;;5049033;28;20189;-73
2022/03/27 02:36:05;;;;;;;21.93;8.90;;;6.10;99.90;;;;;;5068556;28;20197;-74
2022/03/27 02:38:31;;;;;;;17.60;8.87;;;6.10;99.90;;;;;;5057869;28;20449;-73
2022/03/27 02:40:56;;;;;;;16.20;8.90;;;6.10;99.90;;;;;;5052183;28;20444;-74
2022/03/27 02:43:22;;;;;;;21.17;9.70;;;6.00;99.90;;;;;;5054491;28;20271;-73
2022/03/27 02:45:49;;;;;;;19.70;10.60;;;6.10;99.90;;;;;;5066255;28;20643;-73
2022/03/27 02:48:15;;;;;;;17.10;9.43;;;6.30;99.90;;;;;;5062092;28;20261;-73
2022/03/27 02:50:43;;;;;;;20.53;9.30;;;5.90;99.90;;;;;;5074579;28;20529;-74
2022/03/27 02:53:10;;;;;;;17.03;8.50;;;5.90;99.90;;;;;;5062987;28;20174;-73
2022/03/27 02:55:35;;;;;;;20.50;9.20;;;6.20;99.90;;;;;;5067292;28;20799;-73
2022/03/27 02:58:01;;;;;;;16.87;9.27;;;5.80;99.90;;;;;;5068193;28;20403;-74
2022/03/27 03:00:27;;;;;;;15.93;8.43;;;5.80;99.90;;;;;;5066259;28;20188;-73
2022/03/27 03:02:54;;;;;;;19.40;9.00;;;5.80;99.90;;;;;;5062273;28;20509;-74
2022/03/27 03:05:20;;;;;;;18.07;9.60;;;5.80;99.90;;;;;;5067158;28;20168;-73
2022/03/27 03:07:46;;;;;;;17.17;8.43;;;5.80;99.90;;;;;;5064082;28;20542;-74
2022/03/27 03:10:14;;;;;;;14.37;8.90;;;5.70;99.90;;;;;;5054128;28;20600;-73
2022/03/27 03:12:40;;;;;;;19.20;9.00;;;6.00;99.90;;;;;;5064573;28;20253;-73
2022/03/27 03:15:07;;;;;;;25.13;10.27;;;5.70;99.90;;;;;;5059310;28;20422;-73
2022/03/27 03:17:32;;;;;;;13.57;8.30;;;5.60;99.90;;;;;;5067101;28;21027;-73
2022/03/27 03:19:59;;;;;;;17.30;8.80;;;5.60;99.90;;;;;;5066750;28;20453;-73
2022/03/27 03:22:25;;;;;;;24.30;9.73;;;5.60;99.90;;;;;;5068401;28;20759;-73
2022/03/27 03:24:50;;;;;;;17.77;9.43;;;5.60;99.90;;;;;;5082320;28;20403;-73
2022/03/27 03:27:16;;;;;;;29.40;10.30;;;5.60;99.90;;;;;;5067306;28;20468;-73
2022/03/27 03:29:42;;;;;;;15.40;9.10;;;5.60;99.90;;;;;;5063166;28;20196;-73
2022/03/27 03:32:07;;;;;;;17.17;8.47;;;5.70;99.90;;;;;;5076655;28;20481;-73
2022/03/27 03:34:33;;;;;;;15.67;9.43;;;5.70;99.90;;;;;;5066223;28;20176;-74
2022/03/27 03:36:59;;;;;;;16.63;8.73;;;5.70;99.90;;;;;;5066513;28;20707;-73
2022/03/27 03:39:24;;;;;;;16.87;9.60;;;5.70;99.90;;;;;;5050672;28;20201;-73
2022/03/27 03:41:50;;;;;;;15.67;8.90;;;5.70;99.90;;;;;;5045688;28;20268;-72
2022/03/27 03:44:17;;;;;;;18.57;8.90;;;6.20;99.90;;;;;;5060241;28;20354;-73
2022/03/27 03:46:43;;;;;;;17.17;9.23;;;5.50;99.90;;;;;;5065546;28;20253;-73
2022/03/27 03:49:09;;;;;;;18.47;9.40;;;5.70;99.90;;;;;;5062608;28;20910;-72
2022/03/27 03:51:35;;;;;;;21.47;9.27;;;5.60;99.90;;;;;;5078585;28;20539;-73
2022/03/27 03:54:03;;;;;;;15.37;9.00;;;5.60;99.90;;;;;;5068108;28;20565;-73
2022/03/27 03:56:28;;;;;;;16.53;9.40;;;5.50;99.90;;;;;;5066757;28;20450;-73
2022/03/27 03:58:54;;;;;;;18.83;9.27;;;5.40;99.90;;;;;;5060186;28;20446;-73
2022/03/27 04:01:19;;;;;;;19.10;9.77;;;5.40;99.90;;;;;;5066666;28;20237;-73
2022/03/27 04:03:45;;;;;;;18.43;9.83;;;5.40;99.90;;;;;;5063880;28;20671;-73
2022/03/27 04:06:10;;;;;;;19.60;9.60;;;5.40;99.90;;;;;;5066234;28;20176;-73
2022/03/27 04:08:36;;;;;;;23.03;9.57;;;5.90;99.90;;;;;;5061143;28;20184;-73
2022/03/27 04:11:02;;;;;;;18.20;9.83;;;6.00;99.90;;;;;;5047084;28;20177;-73
2022/03/27 04:13:27;;;;;;;17.90;10.07;;;5.60;99.90;;;;;;5066972;28;20318;-73
2022/03/27 04:15:53;;;;;;;24.50;10.30;;;6.00;99.90;;;;;;5048513;28;20545;-73
2022/03/27 04:18:18;;;;;;;21.03;10.37;;;5.70;99.90;;;;;;5046804;28;20185;-73
2022/03/27 04:20:44;;;;;;;24.77;10.53;;;5.80;99.90;;;;;;5071777;28;20204;-73
2022/03/27 04:23:10;;;;;;;17.30;10.10;;;5.70;99.90;;;;;;5064640;28;20192;-73
2022/03/27 04:25:35;;;;;;;22.07;10.17;;;5.70;99.90;;;;;;5066435;28;20195;-73
2022/03/27 04:28:05;;;;;;;17.97;10.03;;;5.80;99.90;;;;;;5065326;28;20181;-73
2022/03/27 04:30:31;;;;;;;21.37;11.40;;;5.70;99.90;;;;;;5045381;28;20208;-73
2022/03/27 04:32:56;;;;;;;18.60;10.87;;;5.70;99.90;;;;;;5063121;28;20419;-73
2022/03/27 04:35:22;;;;;;;22.17;11.60;;;5.80;99.90;;;;;;5064998;28;20223;-73
2022/03/27 04:37:47;;;;;;;24.40;12.43;;;5.70;99.90;;;;;;5050122;28;20264;-73
2022/03/27 04:40:13;;;;;;;19.87;12.10;;;5.80;99.90;;;;;;5063509;28;20200;-73
2022/03/27 04:42:40;;;;;;;20.73;11.50;;;5.90;99.90;;;;;;5062953;28;20177;-73
2022/03/27 04:45:07;;;;;;;24.37;12.00;;;5.80;99.90;;;;;;5066506;28;20462;-73
2022/03/27 04:47:34;;;;;;;17.70;11.70;;;5.80;99.90;;;;;;5059390;28;20530;-75
2022/03/27 04:49:59;;;;;;;20.43;12.07;;;5.90;99.90;;;;;;5066707;28;20468;-73
2022/03/27 04:52:25;;;;;;;24.10;12.33;;;6.00;99.90;;;;;;5061220;28;20947;-73
2022/03/27 04:54:51;;;;;;;23.30;12.17;;;6.40;99.90;;;;;;5067954;28;20176;-71
2022/03/27 04:57:17;;;;;;;20.47;11.53;;;6.00;99.90;;;;;;5067273;28;20545;-72
2022/03/27 04:59:42;;;;;;;19.83;11.50;;;6.00;99.90;;;;;;5055392;28;20268;-72
2022/03/27 05:02:08;;;;;;;20.80;11.97;;;6.00;99.90;;;;;;5063662;28;20183;-72
2022/03/27 05:04:33;;;;;;;17.90;11.13;;;6.40;99.90;;;;;;5070097;28;20176;-72
2022/03/27 05:06:59;;;;;;;23.30;11.80;;;6.10;99.90;;;;;;5069538;28;20220;-73
2022/03/27 05:09:25;;;;;;;17.77;12.23;;;6.00;99.90;;;;;;5056788;28;20201;-72
2022/03/27 05:11:50;;;;;;;20.30;12.10;;;6.10;99.90;;;;;;5058068;28;20207;-73
2022/03/27 05:14:16;;;;;;;20.10;11.20;;;6.10;99.90;;;;;;5063451;28;20168;-72
2022/03/27 05:16:42;;;;;;;23.30;11.53;;;5.90;99.90;;;;;;5069395;28;20211;-72
2022/03/27 05:19:07;;;;;;;19.53;11.83;;;6.20;99.90;;;;;;5065422;28;20196;-72
2022/03/27 05:21:34;;;;;;;21.97;11.80;;;5.80;99.90;;;;;;5073694;28;20426;-72
2022/03/27 05:24:01;;;;;;;19.33;11.20;;;5.80;99.90;;;;;;5062154;28;20241;-73
2022/03/27 05:26:27;;;;;;;23.40;11.30;;;5.80;99.90;;;;;;5067111;28;20513;-72
2022/03/27 05:28:54;;;;;;;22.30;11.60;;;5.90;99.90;;;;;;5062870;28;20515;-72
2022/03/27 05:31:20;;;;;;;22.20;10.70;;;6.10;99.90;;;;;;5049659;28;20443;-72
2022/03/27 05:33:46;;;;;;;19.40;10.87;;;6.30;99.90;;;;;;5068131;28;20426;-72
2022/03/27 05:36:11;;;;;;;19.37;11.53;;;5.90;99.90;;;;;;5067353;28;20464;-72
2022/03/27 05:38:38;;;;;;;20.93;11.67;;;6.10;99.90;;;;;;5065366;28;20242;-72
2022/03/27 05:41:04;;;;;;;22.53;12.90;;;5.90;99.90;;;;;;5051583;28;20168;-72
2022/03/27 05:43:30;;;;;;;21.80;12.77;;;5.90;99.90;;;;;;5059302;28;20525;-72
2022/03/27 05:45:55;;;;;;;28.03;14.03;;;5.90;99.90;;;;;;5069753;28;20847;-72
2022/03/27 05:48:21;;;;;;;24.60;13.80;;;6.00;99.90;;;;;;5055049;28;20185;-72
2022/03/27 05:50:47;;;;;;;24.53;13.77;;;6.50;99.90;;;;;;5071400;28;20227;-72
2022/03/27 05:53:13;;;;;;;19.50;12.43;;;6.10;99.90;;;;;;5089443;28;20241;-72
2022/03/27 05:55:39;;;;;;;23.40;13.07;;;6.20;99.90;;;;;;5081946;28;20618;-72
2022/03/27 05:58:04;;;;;;;21.23;12.73;;;6.20;99.90;;;;;;5069447;28;20242;-72
2022/03/27 06:00:30;;;;;;;26.40;13.80;;;6.30;99.90;;;;;;5049627;28;20232;-72
2022/03/27 06:02:55;;;;;;;24.60;12.70;;;6.30;99.90;;;;;;5062281;28;20579;-72
2022/03/27 06:05:25;;;;;;;19.70;12.37;;;6.40;99.90;;;;;;5068419;28;20243;-72
2022/03/27 06:07:56;;;;;;;19.47;12.47;;;6.40;99.90;;;;;;5067476;28;20177;-72
2022/03/27 06:10:26;;;;;;;21.90;12.67;;;6.50;99.90;;;;;;5049666;28;20447;-72
2022/03/27 06:12:52;;;;;;;21.50;14.30;;;6.50;99.90;;;;;;5047516;28;20412;-72
2022/03/27 06:15:19;;;;;;;24.97;15.60;;;6.60;99.90;;;;;;5065526;28;20419;-72
2022/03/27 06:17:48;;;;;;;27.63;14.20;;;6.70;99.90;;;;;;5053792;28;20466;-72
2022/03/27 06:20:16;;;;;;;23.53;14.27;;;6.80;99.90;;;;;;5069813;28;20450;-72
2022/03/27 06:22:42;;;;;;;24.40;13.50;;;6.90;99.90;;;;;;5066468;28;20956;-73
2022/03/27 06:25:10;;;;;;;20.43;13.47;;;7.30;99.90;;;;;;5065721;28;20411;-72
2022/03/27 06:27:36;;;;;;;24.17;14.00;;;8.00;99.90;;;;;;5055230;28;20428;-73
2022/03/27 06:30:03;;;;;;;20.90;12.57;;;8.90;99.90;;;;;;5051708;28;20443;-74
2022/03/27 06:32:28;;;;;;;20.63;12.87;;;9.60;99.90;;;;;;5047080;28;20485;-73
2022/03/27 06:34:58;;;;;;;26.37;14.20;;;10.40;99.90;;;;;;5048870;28;20439;-73
2022/03/27 06:37:25;;;;;;;30.63;18.47;;;11.20;99.90;;;;;;5059855;28;20204;-73
2022/03/27 06:39:50;;;;;;;19.93;13.20;;;11.90;99.90;;;;;;5064320;28;20444;-73
2022/03/27 06:42:16;;;;;;;22.87;16.07;;;12.50;99.90;;;;;;5068080;28;20930;-73
2022/03/27 06:44:42;;;;;;;24.17;16.40;;;13.10;95.70;;;;;;5061975;28;20184;-73
2022/03/27 06:47:08;;;;;;;19.93;13.87;;;13.50;91.80;;;;;;5065658;28;20454;-73
2022/03/27 06:49:34;;;;;;;22.03;14.27;;;13.60;90.50;;;;;;5064453;28;20391;-74
2022/03/27 06:52:00;;;;;;;29.93;16.97;;;13.20;92.50;;;;;;5061416;28;20660;-73
2022/03/27 06:54:26;;;;;;;21.10;15.70;;;12.70;94.30;;;;;;5059788;28;20655;-73
2022/03/27 06:56:51;;;;;;;25.13;14.40;;;12.40;97.00;;;;;;5076960;28;20460;-73
2022/03/27 06:59:17;;;;;;;22.23;14.43;;;12.30;98.60;;;;;;5088104;28;20639;-73
2022/03/27 07:04:34;;;;;;;23.00;15.57;;;13.00;96.10;;;;;;5036836;28;20411;-74
2022/03/27 07:07:00;;;;;;;21.43;15.50;;;13.10;95.20;;;;;;5052779;28;20265;-73
2022/03/27 07:09:26;;;;;;;23.43;15.00;;;12.60;96.80;;;;;;5047425;28;20683;-73
2022/03/27 07:11:51;;;;;;;22.20;15.07;;;12.30;99.90;;;;;;5048105;28;20263;-73
2022/03/27 07:14:17;;;;;;;23.83;15.40;;;11.90;99.90;;;;;;5047150;28;20196;-73
2022/03/27 07:16:43;;;;;;;24.30;15.50;;;11.70;99.90;;;;;;5046424;28;20331;-73
2022/03/27 07:19:10;;;;;;;18.93;14.33;;;11.90;99.90;;;;;;5050085;28;20213;-73
2022/03/27 07:21:36;;;;;;;22.00;14.30;;;12.70;99.90;;;;;;5051806;28;20165;-73
2022/03/27 07:24:02;;;;;;;24.00;14.70;;;13.80;97.30;;;;;;5066361;28;20455;-73
2022/03/27 07:26:28;;;;;;;23.27;16.23;;;15.00;87.70;;;;;;5070386;28;20509;-74
2022/03/27 07:28:54;;;;;;;22.77;17.47;;;16.20;77.50;;;;;;5068775;28;20187;-74
2022/03/27 07:31:19;;;;;;;25.10;19.00;;;17.10;70.40;;;;;;5065676;28;20164;-74
2022/03/27 07:33:45;;;;;;;22.23;17.70;;;18.00;66.20;;;;;;5060669;28;20421;-74
2022/03/27 07:36:11;;;;;;;25.77;18.07;;;18.70;54.60;;;;;;5059603;28;20681;-74
2022/03/27 07:38:36;;;;;;;25.83;17.70;;;19.20;53.00;;;;;;5066141;28;20222;-74
2022/03/27 07:41:02;;;;;;;25.47;17.93;;;20.00;46.70;;;;;;5063331;28;20199;-74
2022/03/27 07:43:29;;;;;;;24.50;17.70;;;20.50;46.80;;;;;;5066818;28;20168;-73
2022/03/27 07:45:54;;;;;;;22.73;17.63;;;20.80;47.00;;;;;;5049876;28;20918;-77
2022/03/27 07:48:20;;;;;;;20.47;17.33;;;21.30;47.50;;;;;;5056904;28;20433;-74
2022/03/27 07:50:49;;;;;;;20.37;16.60;;;21.60;47.70;;;;;;5067956;28;20191;-74
2022/03/27 07:53:15;;;;;;;28.47;17.90;;;21.60;47.80;;;;;;5066587;28;20167;-74
2022/03/27 07:55:40;;;;;;;21.73;16.90;;;21.80;46.70;;;;;;5073522;28;20186;-74
2022/03/27 07:58:06;;;;;;;21.10;16.43;;;22.30;46.90;;;;;;5079772;28;20630;-74
2022/03/27 08:00:32;;;;;;;20.53;16.17;;;22.80;37.40;;;;;;5080067;28;20196;-74
2022/03/27 08:02:57;;;;;;;19.93;16.07;;;23.10;34.50;;;;;;5067644;28;20180;-74
2022/03/27 08:05:24;;;;;;;23.03;17.10;;;23.40;32.10;;;;;;5068478;28;20176;-72
2022/03/27 08:07:50;;;;;;;24.17;16.83;;;23.90;31.50;;;;;;5068550;28;20250;-75
2022/03/27 08:10:16;;;;;;;20.30;16.38;;;24.50;29.10;;;;;;5061494;28;20184;-75
2022/03/27 08:12:43;;;;;;;24.98;17.00;;;25.00;29.10;;;;;;5048572;28;20164;-74
2022/03/27 08:15:09;;;;;;;23.35;17.08;;;25.50;26.30;;;;;;5047617;28;20173;-74
2022/03/27 08:17:35;;;;;;;20.48;16.42;;;26.00;25.00;;;;;;5048507;28;20693;-74
2022/03/27 08:20:02;;;;;;;19.17;15.57;;;26.20;22.10;;;;;;5060596;28;20317;-74
2022/03/27 08:22:27;;;;;;;23.02;14.57;;;26.30;18.70;;;;;;5065552;28;20172;-74
2022/03/27 08:24:54;;;;;;;18.05;14.15;;;26.50;20.20;;;;;;5069613;28;20303;-75
2022/03/27 08:27:20;;;;;;;17.90;13.85;;;26.80;19.00;;;;;;5083587;28;20235;-74
2022/03/27 08:29:46;;;;;;;17.27;14.75;;;27.10;18.70;;;;;;5079993;28;20200;-75
2022/03/27 08:32:14;;;;;;;17.98;14.73;;;27.50;16.30;;;;;;5071289;28;20183;-75
2022/03/27 08:34:41;;;;;;;22.88;15.10;;;28.00;16.00;;;;;;5050339;28;20169;-75
2022/03/27 08:37:09;;;;;;;21.08;14.20;;;28.10;12.10;;;;;;5052111;28;20941;-74
2022/03/27 08:39:35;;;;;;;20.05;16.25;;;28.00;12.90;;;;;;5051032;28;20193;-75
2022/03/27 08:42:02;;;;;;;18.85;16.02;;;28.70;12.30;;;;;;5050359;28;20176;-74
2022/03/27 08:44:29;;;;;;;19.50;15.45;;;28.80;10.00;;;;;;5067082;28;20265;-75
2022/03/27 08:46:58;;;;;;;18.88;15.73;;;28.80;9.50;;;;;;5050605;28;20335;-75
2022/03/27 08:49:28;;;;;;;17.85;15.32;;;29.20;9.90;;;;;;5051279;28;20670;-75
2022/03/27 08:52:17;;;;;;;19.63;16.08;;;29.50;8.80;;;;;;5062145;28;20184;-75
2022/03/27 08:54:59;;;;;;;17.20;15.25;;;29.80;6.60;;;;;;5048678;28;20203;-75
2022/03/27 08:57:55;;;;;;;18.63;14.70;;;30.20;5.30;;;;;;5083307;28;20695;-75
2022/03/27 09:00:23;;;;;;;20.27;15.45;;;30.60;5.00;;;;;;5091153;28;20255;-75
2022/03/27 09:02:50;;;;;;;19.98;15.10;;;30.90;1.00;;;;;;5086393;28;20167;-74
2022/03/27 09:05:17;;;;;;;19.00;15.18;;;31.10;1.00;;;;;;5071055;28;20626;-74
2022/03/27 09:07:42;;;;;;;14.85;13.25;;;31.20;1.00;;;;;;5071540;28;20173;-74
2022/03/27 09:10:10;;;;;;;16.85;14.70;;;31.10;1.00;;;;;;5068943;28;20196;-75
2022/03/27 09:12:36;;;;;;;18.48;14.00;;;31.80;1.00;;;;;;5068803;28;20172;-75
2022/03/27 09:15:07;;;;;;;18.48;14.35;;;32.50;1.00;;;;;;5050619;28;20172;-75
2022/03/27 09:17:32;;;;;;;22.65;14.02;;;32.90;1.00;;;;;;5050109;28;20462;-75
2022/03/27 09:19:58;;;;;;;19.33;14.00;;;32.90;1.00;;;;;;5051247;28;20296;-75
2022/03/27 09:22:29;;;;;;;15.73;13.82;;;32.90;1.00;;;;;;5070202;28;20252;-75
2022/03/27 09:24:59;;;;;;;20.25;14.13;;;33.10;1.00;;;;;;5072457;28;20183;-74
2022/03/27 09:27:36;;;;;;;17.08;13.70;;;33.20;1.00;;;;;;5082525;28;20183;-74
2022/03/27 09:30:11;;;;;;;17.25;13.30;;;33.80;1.00;;;;;;5089377;28;20215;-75
2022/03/27 09:32:45;;;;;;;16.67;13.02;;;34.30;1.00;;;;;;5080421;28;20622;-75
2022/03/27 09:35:13;;;;;;;14.45;12.40;;;34.40;1.00;;;;;;5061712;28;20176;-75
2022/03/27 09:37:42;;;;;;;15.63;12.48;;;34.60;1.00;;;;;;5057410;28;20257;-75
2022/03/27 09:40:09;;;;;;;17.13;12.27;;;34.30;1.00;;;;;;5063325;28;20218;-74
2022/03/27 09:42:37;;;;;;;14.35;11.32;;;34.60;1.00;;;;;;5064764;28;20676;-75
2022/03/27 09:45:15;;;;;;;13.05;10.65;;;35.10;1.00;;;;;;5070196;28;20417;-75
2022/03/27 09:47:42;;;;;;;14.55;11.40;;;34.30;1.00;;;;;;5069908;28;20168;-75
2022/03/27 09:50:27;;;;;;;13.90;10.43;;;34.40;1.00;;;;;;5051753;28;20296;-75
2022/03/27 09:52:52;;;;;;;12.98;10.82;;;34.50;1.00;;;;;;5049338;28;20709;-75
2022/03/27 09:55:18;;;;;;;12.18;10.88;;;33.80;1.00;;;;;;5060089;28;20287;-75
2022/03/27 09:57:43;;;;;;;13.98;9.98;;;33.80;1.00;;;;;;5082229;28;20221;-75
2022/03/27 10:00:20;;;;;;;11.73;10.18;;;34.00;1.00;;;;;;5089844;28;20264;-75
2022/03/27 10:02:51;;;;;;;12.88;9.95;;;34.40;1.00;;;;;;5073132;28;20183;-75
2022/03/27 10:05:20;;;;;;;16.40;10.18;;;35.20;1.00;;;;;;5069992;28;20518;-75
2022/03/27 10:07:52;;;;;;;14.60;10.45;;;35.50;1.00;;;;;;5070323;28;20622;-75
2022/03/27 10:10:20;;;;;;;13.25;9.35;;;34.90;1.00;;;;;;5069235;28;20196;-74
2022/03/27 10:12:47;;;;;;;11.65;9.05;;;34.80;1.00;;;;;;5067262;28;20176;-75
2022/03/27 10:15:21;;;;;;;12.52;9.48;;;35.20;1.00;;;;;;5069378;28;20246;-75
2022/03/27 10:17:55;;;;;;;12.00;9.15;;;35.90;1.00;;;;;;5070067;28;20595;-74
2022/03/27 10:20:22;;;;;;;15.63;9.02;;;36.80;1.00;;;;;;5068784;28;20739;-75
2022/03/27 10:22:52;;;;;;;12.45;9.80;;;37.50;1.00;;;;;;5068856;28;20279;-75
2022/03/27 10:25:18;;;;;;;13.90;8.32;;;38.10;1.00;;;;;;5074138;28;20175;-75
2022/03/27 10:27:47;;;;;;;13.55;8.70;;;38.70;1.00;;;;;;5081364;28;20705;-75
2022/03/27 10:30:15;;;;;;;12.73;8.82;;;38.50;1.00;;;;;;5088893;28;20218;-75
2022/03/27 10:32:42;;;;;;;12.98;8.20;;;36.90;1.00;;;;;;5074030;28;20224;-75
2022/03/27 10:35:44;;;;;;;13.45;7.57;;;36.50;1.00;;;;;;5069525;28;20568;-75
2022/03/27 10:38:15;;;;;;;20.25;9.18;;;36.80;1.00;;;;;;5069738;28;20160;-75
2022/03/27 10:41:06;;;;;;;13.85;8.98;;;37.10;1.00;;;;;;5056266;28;20193;-75
2022/03/27 10:44:01;;;;;;;15.85;9.48;;;37.20;1.00;;;;;;5049165;28;20165;-75
2022/03/27 10:46:28;;;;;;;13.52;8.60;;;37.60;1.00;;;;;;5049314;28;20323;-75
2022/03/27 10:49:13;;;;;;;10.88;9.10;;;38.00;1.00;;;;;;5048763;28;20579;-75
2022/03/27 10:51:44;;;;;;;13.55;7.93;;;38.20;1.00;;;;;;5060508;28;20267;-75
2022/03/27 10:54:14;;;;;;;14.77;9.02;;;38.80;1.00;;;;;;5069178;28;20278;-75
2022/03/27 10:56:51;;;;;;;16.80;10.65;;;38.40;1.00;;;;;;5077276;28;20175;-75
2022/03/27 10:59:19;;;;;;;21.15;10.85;;;38.50;1.00;;;;;;5089034;28;20191;-75
2022/03/27 11:01:46;;;;;;;16.70;9.55;;;39.00;1.00;;;;;;5067279;28;20299;-75
2022/03/27 11:04:14;;;;;;;13.45;9.88;;;38.90;1.00;;;;;;5069194;28;20620;-75
2022/03/27 11:06:44;;;;;;;13.95;9.57;;;39.10;1.00;;;;;;5069033;28;20297;-75
2022/03/27 11:09:30;;;;;;;20.95;10.10;;;38.60;1.00;;;;;;5069340;28;20179;-75
2022/03/27 11:11:57;;;;;;;14.65;10.27;;;37.50;1.00;;;;;;5056592;28;20262;-75
2022/03/27 11:14:43;;;;;;;14.23;10.50;;;38.00;1.00;;;;;;5067056;28;20172;-75
2022/03/27 11:17:11;;;;;;;11.80;9.43;;;38.10;1.00;;;;;;5069129;28;20577;-75
2022/03/27 11:19:43;;;;;;;11.00;8.35;;;38.30;1.00;;;;;;5067965;28;20293;-75
2022/03/27 11:22:53;;;;;;;10.98;8.90;;;38.50;1.00;;;;;;5067464;28;20275;-74
2022/03/27 11:25:37;;;;;;;14.52;9.35;;;37.60;1.00;;;;;;5073663;28;20602;-74
2022/03/27 11:28:15;;;;;;;13.45;8.90;;;36.30;1.00;;;;;;5073383;28;20262;-74
2022/03/27 11:30:49;;;;;;;13.18;8.48;;;35.80;1.00;;;;;;5076689;28;20689;-73
2022/03/27 11:33:25;;;;;;;13.68;8.77;;;36.50;1.00;;;;;;5065177;28;20231;-73
2022/03/27 11:36:09;;;;;;;10.15;8.50;;;37.20;1.00;;;;;;5067190;28;20262;-74
2022/03/27 11:39:01;;;;;;;13.38;8.60;;;36.70;1.00;;;;;;5068590;28;20165;-74
2022/03/27 11:41:46;;;;;;;11.73;8.80;;;37.10;1.00;;;;;;5046774;28;20547;-74
2022/03/27 11:44:20;;;;;;;13.18;9.00;;;37.70;1.00;;;;;;5056390;28;20176;-74
2022/03/27 11:46:56;;;;;;;10.43;8.10;;;36.90;1.00;;;;;;5068563;28;20205;-74
2022/03/27 11:49:35;;;;;;;12.77;8.75;;;36.80;1.00;;;;;;5068616;28;20180;-74
2022/03/27 11:52:20;;;;;;;12.15;8.43;;;36.30;1.00;;;;;;5068277;28;20710;-74
2022/03/27 11:54:47;;;;;;;9.82;7.65;;;36.70;1.00;;;;;;5068910;28;20287;-74
2022/03/27 11:57:13;;;;;;;13.63;8.63;;;36.60;1.00;;;;;;5079097;28;20814;-74
2022/03/27 11:59:50;;;;;;;10.77;7.03;;;36.50;1.00;;;;;;5087431;28;20281;-74
2022/03/27 12:02:17;;;;;;;12.90;7.88;;;37.30;1.00;;;;;;5050905;28;20662;-74
2022/03/27 12:04:54;;;;;;;12.00;8.10;;;37.50;1.00;;;;;;5067742;28;20196;-74
2022/03/27 12:07:22;;;;;;;11.95;7.45;;;38.40;1.00;;;;;;5052042;28;20203;-74
2022/03/27 12:09:56;;;;;;;11.45;7.18;;;37.90;1.00;;;;;;5066062;28;20184;-75
2022/03/27 12:12:22;;;;;;;16.20;8.05;;;37.10;1.00;;;;;;5072439;28;20195;-74
2022/03/27 12:15:00;;;;;;;11.52;7.90;;;37.10;1.00;;;;;;5070306;28;20230;-75
2022/03/27 12:17:31;;;;;;;9.95;7.82;;;36.80;1.00;;;;;;5071236;28;20171;-76
2022/03/27 12:20:08;;;;;;;11.82;8.40;;;37.00;1.00;;;;;;5058690;28;20295;-76
2022/03/27 12:22:46;;;;;;;12.18;7.97;;;37.80;1.00;;;;;;5071925;28;20172;-76
2022/03/27 12:25:15;;;;;;;11.88;7.88;;;38.00;1.00;;;;;;5076303;28;20820;-76
2022/03/27 12:30:53;;;;;;;11.13;7.90;;;37.10;1.00;;;;;;5070751;28;20234;-75
2022/03/27 12:33:27;;;;;;;9.13;6.80;;;38.00;1.00;;;;;;5069627;28;20207;-75
2022/03/27 12:36:09;;;;;;;10.32;8.35;;;37.40;1.00;;;;;;5071634;28;20163;-76
2022/03/27 12:38:34;;;;;;;9.80;7.38;;;36.50;1.00;;;;;;5067614;28;20203;-75
2022/03/27 12:41:02;;;;;;;13.13;7.78;;;36.10;1.00;;;;;;5050765;28;20181;-75
2022/03/27 12:43:28;;;;;;;14.65;7.82;;;36.40;1.00;;;;;;5050959;28;20271;-75
2022/03/27 12:45:55;;;;;;;10.18;7.28;;;37.40;1.00;;;;;;5068506;28;20176;-76
2022/03/27 12:48:29;;;;;;;11.93;7.65;;;37.90;1.00;;;;;;5069157;28;20214;-75
2022/03/27 12:50:56;;;;;;;13.40;8.07;;;37.20;1.00;;;;;;5071457;28;20227;-74
2022/03/27 12:53:22;;;;;;;11.85;8.07;;;37.00;1.00;;;;;;5071733;28;20175;-75